createdAt,value
2019-03-20T00:00:43.509Z,19.02
2019-03-20T00:03:14.700Z,17.77
2019-03-20T00:05:43.371Z,18.30
2019-03-20T00:08:19.183Z,16.97
2019-03-20T00:10:49.351Z,18.47
2019-03-20T00:13:18.250Z,18.07
2019-03-20T00:15:49.470Z,17.47
2019-03-20T00:18:17.994Z,17.33
2019-03-20T00:20:49.738Z,18.37
2019-03-20T00:23:23.172Z,17.83
2019-03-20T00:25:54.124Z,18.03
2019-03-20T00:28:22.710Z,17.23
2019-03-20T00:30:52.709Z,17.50
2019-03-20T00:33:21.491Z,17.50
2019-03-20T00:35:50.026Z,17.03
2019-03-20T00:38:19.192Z,18.00
2019-03-20T00:40:48.001Z,18.20
2019-03-20T00:43:19.666Z,16.80
2019-03-20T00:45:48.420Z,16.50
2019-03-20T00:48:18.466Z,17.02
2019-03-20T00:50:46.928Z,17.43
2019-03-20T00:53:17.852Z,19.93
2019-03-20T00:55:46.342Z,19.07
2019-03-20T00:58:16.425Z,18.13
2019-03-20T01:00:48.467Z,15.83
2019-03-20T01:03:17.038Z,17.32
2019-03-20T01:05:47.095Z,16.77
2019-03-20T01:08:16.000Z,17.27
2019-03-20T01:10:47.342Z,17.13
2019-03-20T01:13:15.796Z,16.93
2019-03-20T01:15:44.252Z,16.53
2019-03-20T01:18:12.770Z,16.47
2019-03-20T01:20:42.509Z,17.10
2019-03-20T01:23:13.986Z,19.10
2019-03-20T01:25:42.444Z,17.97
2019-03-20T01:28:14.644Z,18.80
2019-03-20T01:30:43.279Z,18.93
2019-03-20T01:33:17.734Z,17.63
2019-03-20T01:35:48.819Z,17.87
2019-03-20T01:38:17.642Z,18.13
2019-03-20T01:40:47.105Z,17.07
2019-03-20T01:43:16.644Z,17.67
2019-03-20T01:45:46.789Z,17.03
2019-03-20T01:48:15.296Z,17.80
2019-03-20T01:50:43.821Z,17.60
2019-03-20T01:53:12.366Z,18.13
2019-03-20T01:55:40.852Z,18.43
2019-03-20T01:58:09.381Z,18.77
2019-03-20T02:00:40.053Z,19.27
2019-03-20T02:03:11.117Z,17.30
2019-03-20T02:05:42.329Z,18.52
2019-03-20T02:08:10.904Z,18.10
2019-03-20T02:10:40.591Z,17.57
2019-03-20T02:13:13.687Z,17.37
2019-03-20T02:15:42.201Z,16.57
2019-03-20T02:18:13.799Z,17.13
2019-03-20T02:20:42.326Z,18.37
2019-03-20T02:23:10.895Z,15.63
2019-03-20T02:25:39.366Z,17.67
2019-03-20T02:28:09.055Z,17.87
2019-03-20T02:30:37.619Z,17.50
2019-03-20T02:33:06.550Z,16.83
2019-03-20T02:35:50.252Z,17.10
2019-03-20T02:38:06.470Z,17.52
2019-03-20T02:40:35.010Z,17.17
2019-03-20T02:43:06.600Z,16.13
2019-03-20T02:45:38.724Z,16.97
2019-03-20T02:48:09.844Z,17.83
2019-03-20T02:50:38.521Z,16.25
2019-03-20T02:53:07.146Z,16.63
2019-03-20T02:55:38.488Z,17.67
2019-03-20T02:58:08.118Z,16.10
2019-03-20T03:00:36.662Z,16.83
2019-03-20T03:03:06.230Z,16.00
2019-03-20T03:05:35.692Z,15.00
2019-03-20T03:08:07.047Z,16.43
2019-03-20T03:10:35.717Z,15.07
2019-03-20T03:13:05.574Z,13.93
2019-03-20T03:15:34.022Z,14.53
2019-03-20T03:18:03.976Z,13.70
2019-03-20T03:20:32.441Z,13.93
2019-03-20T03:23:03.899Z,13.80
2019-03-20T03:25:32.599Z,13.97
2019-03-20T03:28:02.874Z,13.70
2019-03-20T03:30:34.495Z,13.18
2019-03-20T03:33:04.609Z,13.13
2019-03-20T03:35:35.878Z,13.57
2019-03-20T03:38:06.243Z,13.83
2019-03-20T03:40:36.370Z,13.70
2019-03-20T03:43:04.936Z,13.83
2019-03-20T03:45:33.478Z,12.45
2019-03-20T03:48:05.184Z,13.03
2019-03-20T03:50:33.751Z,13.80
2019-03-20T03:53:02.395Z,12.70
2019-03-20T03:55:31.075Z,14.37
2019-03-20T03:58:02.711Z,13.10
2019-03-20T04:00:31.306Z,13.30
2019-03-20T04:02:59.875Z,13.97
2019-03-20T04:05:28.458Z,14.07
2019-03-20T04:07:56.999Z,13.80
2019-03-20T04:10:27.053Z,12.77
2019-03-20T04:12:58.879Z,13.97
2019-03-20T04:15:27.361Z,13.45
2019-03-20T04:17:58.885Z,13.00
2019-03-20T04:20:28.655Z,14.90
2019-03-20T04:22:58.280Z,13.93
2019-03-20T04:25:26.772Z,13.67
2019-03-20T04:27:58.444Z,15.07
2019-03-20T04:30:26.965Z,14.50
2019-03-20T04:32:55.525Z,13.47
2019-03-20T04:35:23.988Z,13.40
2019-03-20T04:37:53.473Z,15.33
2019-03-20T04:40:22.934Z,14.97
2019-03-20T04:42:54.900Z,14.40
2019-03-20T04:45:23.365Z,13.05
2019-03-20T04:47:51.866Z,14.10
2019-03-20T04:50:20.338Z,13.90
2019-03-20T04:52:51.181Z,14.00
2019-03-20T04:55:19.690Z,15.40
2019-03-20T04:57:49.366Z,13.80
2019-03-20T05:00:22.118Z,14.10
2019-03-20T05:02:50.626Z,15.13
2019-03-20T05:05:19.230Z,14.70
2019-03-20T05:07:48.941Z,15.40
2019-03-20T05:10:18.781Z,15.30
2019-03-20T05:12:47.416Z,15.30
2019-03-20T05:15:16.020Z,15.43
2019-03-20T05:17:46.212Z,13.97
2019-03-20T05:20:19.895Z,14.67
2019-03-20T05:22:48.514Z,15.00
2019-03-20T05:25:20.197Z,15.70
2019-03-20T05:27:48.667Z,14.17
2019-03-20T05:30:17.456Z,13.80
2019-03-20T05:32:45.975Z,15.57
2019-03-20T05:35:18.654Z,14.77
2019-03-20T05:37:47.121Z,14.67
2019-03-20T05:40:19.838Z,15.03
2019-03-20T05:42:48.381Z,15.60
2019-03-20T05:45:18.381Z,15.27
2019-03-20T05:47:51.041Z,15.50
2019-03-20T05:50:22.583Z,15.23
2019-03-20T05:52:51.174Z,15.27
2019-03-20T05:55:22.559Z,15.63
2019-03-20T05:57:51.180Z,15.87
2019-03-20T06:00:25.175Z,16.03
2019-03-20T06:02:54.827Z,15.47
2019-03-20T06:05:23.503Z,15.10
2019-03-20T06:07:55.472Z,14.87
2019-03-20T06:10:24.036Z,14.83
2019-03-20T06:12:54.033Z,14.63
2019-03-20T06:15:24.505Z,14.83
2019-03-20T06:17:54.427Z,15.47
2019-03-20T06:20:25.609Z,15.10
2019-03-20T06:22:55.087Z,15.83
2019-03-20T06:25:23.586Z,16.00
2019-03-20T06:27:53.077Z,14.67
2019-03-20T06:30:23.117Z,15.10
2019-03-20T06:32:51.596Z,15.30
2019-03-20T06:35:21.155Z,14.30
2019-03-20T06:37:51.231Z,16.05
2019-03-20T06:40:22.514Z,15.03
2019-03-20T06:42:51.149Z,15.83
2019-03-20T06:45:20.644Z,15.93
2019-03-20T06:47:49.642Z,14.77
2019-03-20T06:50:21.185Z,15.45
2019-03-20T06:52:49.824Z,14.83
2019-03-20T06:55:23.205Z,15.90
2019-03-20T06:57:55.822Z,15.97
2019-03-20T07:00:36.125Z,15.53
2019-03-20T07:03:16.479Z,14.53
2019-03-20T07:06:10.705Z,15.20
2019-03-20T07:09:16.153Z,16.10
2019-03-20T07:11:48.474Z,16.33
2019-03-20T07:14:17.010Z,15.50
2019-03-20T07:16:47.496Z,15.63
2019-03-20T07:19:16.171Z,15.93
2019-03-20T07:21:49.200Z,14.23
2019-03-20T07:24:17.711Z,15.70
2019-03-20T07:26:47.393Z,15.13
2019-03-20T07:29:15.918Z,15.63
2019-03-20T07:31:44.450Z,16.37
2019-03-20T07:34:13.081Z,15.23
2019-03-20T07:36:44.176Z,14.70
2019-03-20T07:39:12.671Z,14.17
2019-03-20T07:41:41.178Z,15.10
2019-03-20T07:44:09.896Z,15.20
2019-03-20T07:46:39.749Z,15.15
2019-03-20T07:49:08.322Z,15.53
2019-03-20T07:51:36.848Z,15.80
2019-03-20T07:54:05.384Z,15.53
2019-03-20T07:56:34.162Z,15.10
2019-03-20T07:59:04.146Z,15.63
2019-03-20T08:01:36.838Z,16.80
2019-03-20T08:04:05.317Z,17.25
2019-03-20T08:06:33.792Z,15.67
2019-03-20T08:09:02.398Z,17.10
2019-03-20T08:11:30.889Z,16.60
2019-03-20T08:13:59.404Z,16.70
2019-03-20T08:16:29.010Z,18.17
2019-03-20T08:18:57.580Z,16.60
2019-03-20T08:21:26.069Z,17.33
2019-03-20T08:23:54.801Z,15.90
2019-03-20T08:26:23.306Z,17.13
2019-03-20T08:28:51.767Z,16.87
2019-03-20T08:31:20.284Z,15.28
2019-03-20T08:33:49.025Z,16.10
2019-03-20T08:36:17.502Z,15.83
2019-03-20T08:38:50.228Z,16.07
2019-03-20T08:41:18.809Z,16.40
2019-03-20T08:43:52.040Z,15.57
2019-03-20T08:46:20.509Z,16.80
2019-03-20T08:48:49.068Z,16.37
2019-03-20T08:51:17.535Z,17.57
2019-03-20T08:53:48.905Z,17.80
2019-03-20T08:56:17.394Z,16.53
2019-03-20T08:58:45.889Z,17.40
2019-03-20T09:01:14.419Z,18.40
2019-03-20T09:03:44.309Z,20.30
2019-03-20T09:06:12.761Z,19.10
2019-03-20T09:08:44.262Z,18.33
2019-03-20T09:11:13.698Z,18.73
2019-03-20T09:13:42.241Z,18.63
2019-03-20T09:16:11.189Z,19.97
2019-03-20T09:18:39.747Z,20.37
2019-03-20T09:21:29.118Z,20.10
2019-03-20T09:23:57.655Z,19.63
2019-03-20T09:26:27.485Z,19.15
2019-03-20T09:29:00.935Z,18.60
2019-03-20T09:31:29.383Z,20.02
2019-03-20T09:34:03.074Z,18.87
2019-03-20T09:36:42.704Z,18.35
2019-03-20T09:39:07.037Z,19.70
2019-03-20T09:41:38.502Z,18.32
2019-03-20T09:44:10.550Z,19.33
2019-03-20T09:46:39.290Z,17.63
2019-03-20T09:49:09.049Z,16.63
2019-03-20T09:51:37.567Z,17.33
2019-03-20T09:54:07.047Z,17.30
2019-03-20T09:56:35.499Z,17.70
2019-03-20T09:59:04.064Z,16.57
2019-03-20T10:01:34.174Z,16.30
2019-03-20T10:04:09.081Z,15.63
2019-03-20T10:06:41.895Z,15.50
2019-03-20T10:09:12.605Z,15.87
2019-03-20T10:11:42.517Z,15.23
2019-03-20T10:14:11.150Z,13.90
2019-03-20T10:16:39.612Z,14.90
2019-03-20T10:19:08.130Z,15.40
2019-03-20T10:21:39.569Z,15.37
2019-03-20T10:24:08.853Z,15.30
2019-03-20T10:26:37.533Z,14.93
2019-03-20T10:29:09.221Z,15.67
2019-03-20T10:31:37.765Z,14.30
2019-03-20T10:34:07.234Z,14.53
2019-03-20T10:36:56.225Z,14.20
2019-03-20T10:39:24.692Z,12.53
2019-03-20T10:41:54.904Z,13.70
2019-03-20T10:44:24.581Z,14.25
2019-03-20T10:46:54.328Z,15.03
2019-03-20T10:49:22.911Z,13.30
2019-03-20T10:51:51.420Z,13.38
2019-03-20T10:54:19.882Z,14.77
2019-03-20T10:56:50.180Z,15.03
2019-03-20T10:59:18.751Z,15.17
2019-03-20T11:01:50.204Z,14.73
2019-03-20T11:04:18.674Z,14.93
2019-03-20T11:06:47.188Z,14.37
2019-03-20T11:09:18.420Z,14.30
2019-03-20T11:11:46.002Z,12.97
2019-03-20T11:14:14.693Z,14.07
2019-03-20T11:16:44.264Z,13.83
2019-03-20T11:19:12.728Z,12.70
2019-03-20T11:21:43.485Z,10.73
2019-03-20T11:24:15.229Z,10.63
2019-03-20T11:26:42.135Z,9.50
2019-03-20T11:29:10.634Z,9.47
2019-03-20T11:31:39.274Z,8.23
2019-03-20T11:34:08.850Z,8.50
2019-03-20T11:36:38.262Z,10.13
2019-03-20T11:39:08.929Z,12.17
2019-03-20T11:41:37.480Z,12.13
2019-03-20T11:44:06.124Z,12.27
2019-03-20T11:46:34.649Z,11.70
2019-03-20T11:49:03.146Z,12.53
2019-03-20T11:51:33.206Z,11.80
2019-03-20T11:54:01.682Z,7.17
2019-03-20T11:56:30.813Z,7.80
2019-03-20T11:58:59.308Z,7.03
2019-03-20T12:01:27.862Z,7.40
2019-03-20T12:03:57.350Z,7.05
2019-03-20T12:06:25.838Z,7.63
2019-03-20T12:08:54.508Z,7.70
2019-03-20T12:11:23.571Z,8.17
2019-03-20T12:13:53.614Z,9.50
2019-03-20T12:16:23.080Z,8.90
2019-03-20T12:18:51.609Z,7.57
2019-03-20T12:21:21.473Z,7.73
2019-03-20T12:23:50.006Z,8.40
2019-03-20T12:26:18.464Z,8.73
2019-03-20T12:28:48.095Z,8.10
2019-03-20T12:31:16.757Z,8.37
2019-03-20T12:33:48.151Z,8.53
2019-03-20T12:36:20.505Z,7.93
2019-03-20T12:38:49.022Z,8.78
2019-03-20T12:41:18.553Z,8.53
2019-03-20T12:43:47.102Z,8.60
2019-03-20T12:46:18.462Z,8.43
2019-03-20T12:48:48.074Z,8.47
2019-03-20T12:51:19.663Z,8.50
2019-03-20T12:53:52.475Z,9.10
2019-03-20T12:56:20.985Z,8.28
2019-03-20T12:58:49.487Z,8.63
2019-03-20T13:01:20.667Z,8.30
2019-03-20T13:03:49.201Z,8.60
2019-03-20T13:06:17.659Z,7.33
2019-03-20T13:08:47.688Z,8.23
2019-03-20T13:11:16.165Z,7.40
2019-03-20T13:13:45.805Z,6.43
2019-03-20T13:16:20.327Z,7.03
2019-03-20T13:18:48.869Z,7.80
2019-03-20T13:21:21.062Z,7.83
2019-03-20T13:23:49.687Z,7.07
2019-03-20T13:26:20.279Z,7.43
2019-03-20T13:28:48.837Z,7.67
2019-03-20T13:31:21.809Z,7.67
2019-03-20T13:33:50.329Z,7.77
2019-03-20T13:36:22.036Z,7.53
2019-03-20T13:38:53.097Z,7.73
2019-03-20T13:41:21.660Z,8.17
2019-03-20T13:43:52.893Z,7.80
2019-03-20T13:46:22.397Z,7.70
2019-03-20T13:48:50.900Z,8.93
2019-03-20T13:51:19.358Z,8.73
2019-03-20T13:53:49.233Z,8.23
2019-03-20T13:56:17.799Z,7.77
2019-03-20T13:58:49.220Z,7.83
2019-03-20T14:01:20.497Z,9.43
2019-03-20T14:03:48.963Z,8.27
2019-03-20T14:06:19.501Z,7.80
2019-03-20T14:08:48.034Z,8.67
2019-03-20T14:11:20.661Z,8.60
2019-03-20T14:13:49.220Z,8.13
2019-03-20T14:16:19.221Z,8.78
2019-03-20T14:18:47.685Z,8.23
2019-03-20T14:21:18.902Z,8.27
2019-03-20T14:23:49.071Z,8.17
2019-03-20T14:26:20.503Z,8.20
2019-03-20T14:28:48.960Z,8.00
2019-03-20T14:31:18.528Z,9.03
2019-03-20T14:33:47.162Z,9.20
2019-03-20T14:36:16.815Z,7.83
2019-03-20T14:38:45.292Z,8.70
2019-03-20T14:41:21.600Z,8.40
2019-03-20T14:43:49.801Z,7.77
2019-03-20T14:46:18.575Z,8.05
2019-03-20T14:48:48.388Z,7.60
2019-03-20T14:51:17.274Z,8.18
2019-03-20T14:53:47.060Z,7.57
2019-03-20T14:56:17.381Z,7.53
2019-03-20T14:58:47.668Z,8.20
2019-03-20T15:01:16.236Z,10.78
2019-03-20T15:03:46.182Z,9.10
2019-03-20T15:06:18.217Z,9.47
2019-03-20T15:08:49.445Z,8.57
2019-03-20T15:11:17.900Z,8.30
2019-03-20T15:13:46.470Z,6.85
2019-03-20T15:16:19.428Z,7.50
2019-03-20T15:18:47.893Z,7.63
2019-03-20T15:21:17.578Z,7.07
2019-03-20T15:23:46.211Z,7.70
2019-03-20T15:26:18.904Z,7.83
2019-03-20T15:28:47.438Z,7.87
2019-03-20T15:31:18.656Z,7.67
2019-03-20T15:33:50.011Z,7.03
2019-03-20T15:36:20.136Z,6.97
2019-03-20T15:38:50.160Z,8.97
2019-03-20T15:41:18.751Z,8.60
2019-03-20T15:43:50.202Z,11.37
2019-03-20T15:46:23.363Z,10.60
2019-03-20T15:48:52.030Z,9.80
2019-03-20T15:51:21.575Z,10.80
2019-03-20T15:53:52.633Z,9.10
2019-03-20T15:56:22.627Z,7.20
2019-03-20T15:58:51.196Z,7.55
2019-03-20T16:01:21.663Z,7.73
2019-03-20T16:03:51.825Z,7.53
2019-03-20T16:06:20.293Z,8.10
2019-03-20T16:08:48.788Z,7.17
2019-03-20T16:11:19.724Z,7.93
2019-03-20T16:13:52.140Z,8.60
2019-03-20T16:16:20.739Z,10.23
2019-03-20T16:18:53.760Z,11.30
2019-03-20T16:21:22.442Z,11.00
2019-03-20T16:23:50.942Z,9.87
2019-03-20T16:26:19.451Z,17.60
2019-03-20T16:28:49.352Z,10.70
2019-03-20T16:31:17.949Z,11.83
2019-03-20T16:33:46.759Z,10.67
2019-03-20T16:36:15.415Z,8.23
2019-03-20T16:38:46.872Z,9.60
2019-03-20T16:41:18.711Z,8.57
2019-03-20T16:43:47.170Z,12.33
2019-03-20T16:46:17.208Z,9.53
2019-03-20T16:48:45.688Z,10.13
2019-03-20T16:51:15.237Z,11.13
2019-03-20T16:53:44.887Z,9.10
2019-03-20T16:56:14.475Z,9.03
2019-03-20T16:58:43.001Z,8.90
2019-03-20T17:01:13.327Z,8.13
2019-03-20T17:03:43.531Z,7.90
2019-03-20T17:06:11.983Z,8.47
2019-03-20T17:08:40.473Z,9.40
2019-03-20T17:11:08.925Z,9.23
2019-03-20T17:13:37.491Z,8.37
2019-03-20T17:16:09.817Z,8.13
2019-03-20T17:18:38.276Z,7.10
2019-03-20T17:21:06.737Z,7.80
2019-03-20T17:23:35.361Z,7.80
2019-03-20T17:26:05.389Z,8.80
2019-03-20T17:28:34.668Z,9.70
2019-03-20T17:31:06.449Z,7.92
2019-03-20T17:33:35.937Z,8.73
2019-03-20T17:36:07.551Z,7.37
2019-03-20T17:38:37.177Z,7.63
2019-03-20T17:41:06.785Z,8.33
2019-03-20T17:43:37.046Z,8.30
2019-03-20T17:46:05.966Z,8.77
2019-03-20T17:48:35.647Z,8.10
2019-03-20T17:51:04.484Z,7.93
2019-03-20T17:53:35.641Z,7.70
2019-03-20T17:56:06.416Z,9.60
2019-03-20T17:58:34.874Z,8.53
2019-03-20T18:01:08.625Z,8.90
2019-03-20T18:03:37.504Z,9.37
2019-03-20T18:06:08.329Z,9.60
2019-03-20T18:08:36.846Z,9.53
2019-03-20T18:11:08.768Z,9.23
2019-03-20T18:13:37.269Z,10.35
2019-03-20T18:16:07.083Z,9.47
2019-03-20T18:18:38.357Z,9.53
2019-03-20T18:21:06.877Z,10.07
2019-03-20T18:23:38.516Z,9.50
2019-03-20T18:26:09.949Z,10.30
2019-03-20T18:28:38.424Z,10.30
2019-03-20T18:31:10.764Z,9.43
2019-03-20T18:33:39.291Z,9.93
2019-03-20T18:36:10.483Z,9.93
2019-03-20T18:38:38.980Z,10.28
2019-03-20T18:41:10.102Z,10.73
2019-03-20T18:43:38.594Z,15.20
2019-03-20T18:46:10.128Z,16.97
2019-03-20T18:48:40.160Z,19.27
2019-03-20T18:51:08.690Z,18.63
2019-03-20T18:53:38.208Z,14.80
2019-03-20T18:56:06.747Z,15.43
2019-03-20T18:58:35.212Z,17.40
2019-03-20T19:01:06.586Z,15.60
2019-03-20T19:03:48.521Z,14.87
2019-03-20T19:06:24.505Z,14.77
2019-03-20T19:08:53.302Z,13.83
2019-03-20T19:11:25.672Z,13.57
2019-03-20T19:13:57.841Z,13.43
2019-03-20T19:16:26.399Z,12.27
2019-03-20T19:18:57.388Z,12.25
2019-03-20T19:21:25.960Z,13.10
2019-03-20T19:23:55.975Z,12.67
2019-03-20T19:26:24.526Z,13.97
2019-03-20T19:28:54.717Z,13.70
2019-03-20T19:31:23.207Z,13.40
2019-03-20T19:33:56.151Z,13.93
2019-03-20T19:36:24.715Z,13.43
2019-03-20T19:38:56.102Z,13.07
2019-03-20T19:41:27.014Z,13.10
2019-03-20T19:43:57.306Z,13.70
2019-03-20T19:46:25.757Z,13.27
2019-03-20T19:48:55.761Z,13.55
2019-03-20T19:51:24.359Z,11.87
2019-03-20T19:53:52.909Z,12.57
2019-03-20T19:56:23.848Z,12.60
2019-03-20T19:58:52.357Z,13.20
2019-03-20T20:01:22.026Z,12.63
2019-03-20T20:03:52.689Z,12.67
2019-03-20T20:06:21.265Z,12.73
2019-03-20T20:08:49.727Z,13.50
2019-03-20T20:11:20.597Z,12.50
2019-03-20T20:13:50.429Z,13.13
2019-03-20T20:16:18.897Z,13.17
2019-03-20T20:18:48.322Z,13.17
2019-03-20T20:21:17.099Z,13.60
2019-03-20T20:23:48.425Z,12.67
2019-03-20T20:26:21.348Z,14.37
2019-03-20T20:28:49.943Z,14.27
2019-03-20T20:31:20.927Z,14.53
2019-03-20T20:33:49.425Z,15.38
2019-03-20T20:36:19.919Z,17.37
2019-03-20T20:38:50.867Z,16.10
2019-03-20T20:41:20.313Z,15.83
2019-03-20T20:43:48.847Z,15.47
2019-03-20T20:46:20.039Z,15.32
2019-03-20T20:48:48.537Z,15.13
2019-03-20T20:51:17.071Z,16.80
2019-03-20T20:53:45.615Z,15.73
2019-03-20T20:56:14.110Z,16.48
2019-03-20T20:58:42.578Z,15.90
2019-03-20T21:01:12.155Z,16.00
2019-03-20T21:03:40.771Z,14.50
2019-03-20T21:06:10.599Z,14.93
2019-03-20T21:08:39.200Z,17.20
2019-03-20T21:11:09.397Z,15.43
2019-03-20T21:13:37.930Z,15.93
2019-03-20T21:16:06.627Z,15.15
2019-03-20T21:18:44.284Z,16.37
2019-03-20T21:21:12.768Z,17.23
2019-03-20T21:24:19.446Z,15.43
2019-03-20T21:27:11.251Z,16.37
2019-03-20T21:29:59.466Z,14.77
2019-03-20T21:32:53.272Z,15.50
2019-03-20T21:35:50.051Z,16.33
2019-03-20T21:38:17.489Z,15.33
2019-03-20T21:41:07.002Z,16.27
2019-03-20T21:43:58.892Z,19.60
2019-03-20T21:46:30.439Z,16.52
2019-03-20T21:48:58.916Z,16.63
2019-03-20T21:51:27.438Z,16.65
2019-03-20T21:54:27.664Z,17.27
2019-03-20T21:57:05.107Z,16.23
2019-03-20T21:59:55.984Z,16.42
2019-03-20T22:02:40.554Z,18.03
2019-03-20T22:05:22.797Z,16.10
2019-03-20T22:07:44.174Z,17.23
2019-03-20T22:10:29.078Z,16.40
2019-03-20T22:13:18.979Z,16.00
2019-03-20T22:16:01.089Z,16.83
2019-03-20T22:18:55.507Z,16.70
2019-03-20T22:21:40.139Z,16.83
2019-03-20T22:24:16.010Z,15.20
2019-03-20T22:26:59.935Z,15.60
2019-03-20T22:29:28.818Z,16.63
2019-03-20T22:32:23.929Z,18.57
2019-03-20T22:35:10.449Z,18.90
2019-03-20T22:37:40.694Z,17.73
2019-03-20T22:40:15.118Z,17.90
2019-03-20T22:42:58.699Z,18.17
2019-03-20T22:45:52.642Z,17.40
2019-03-20T22:48:48.352Z,16.93
2019-03-20T22:51:49.726Z,17.37
2019-03-20T22:54:55.845Z,19.20
2019-03-20T22:57:43.392Z,18.73
2019-03-20T23:00:13.366Z,16.63
2019-03-20T23:02:53.714Z,18.23
2019-03-20T23:05:24.052Z,16.97
2019-03-20T23:07:52.574Z,18.43
2019-03-20T23:10:22.581Z,19.00
2019-03-20T23:12:51.199Z,18.93
2019-03-20T23:15:21.721Z,17.67
2019-03-20T23:17:50.300Z,18.53
2019-03-20T23:20:24.977Z,18.83
2019-03-20T23:22:53.633Z,17.98
2019-03-20T23:25:26.761Z,18.32
2019-03-20T23:27:56.487Z,18.20
2019-03-20T23:30:27.707Z,18.17
2019-03-20T23:33:01.401Z,18.80
2019-03-20T23:35:33.267Z,20.02
2019-03-20T23:38:02.633Z,18.93
2019-03-20T23:40:31.092Z,19.93
2019-03-20T23:43:06.513Z,19.43
2019-03-20T23:45:35.082Z,21.43
2019-03-20T23:48:25.902Z,20.90
2019-03-20T23:50:59.134Z,20.40
2019-03-20T23:53:27.993Z,20.53
2019-03-20T23:55:56.459Z,21.23
2019-03-20T23:58:25.081Z,20.87
